KHSA

Stennis International Airport

Bay St Louis, Mississippi, USA
METAR KHSA 221950Z 14005KT 10SM SCT035 24/16 A3012
Observed Flight Rules
Oct-22 @ 19:50 UTC (58 minutes ago) Visual Flight Rules
Wind Visibility Clouds
140° at 5 knots 10 miles
  • Scattered at 3,500' AGL
Temperatures Readings
Current 24°C / 75°F
Dewpoint 16°C / 61°F
Humidity 61%
Altimeter 30.12" Hg
Pressure 1020 hPa
Elevation 7
METAR KHSA 221950Z 14005KT 10SM SCT035 24/16 A3012
Observed Flight Rules
Oct-22 @ 19:50 UTC
(58 minutes ago)
VFR
Wind Visibility
140° at 5 knots 10 miles
Clouds
  • Scattered at 3,500' AGL
Temperature Dewpoint
24°C / 75°F 16°C / 61°F
Humidity Altimeter Pressure
61% 30.12" Hg 1020 hPa